Time;durP1;ratioP1;P1;durP2;ratioP2;P2;SDS_P1;SDS_P2;PMS_P1;PMS_P2;Temp;Humidity;BMP_temperature;BMP_pressure;BME280_temperature;BME280_humidity;BME280_pressure;Samples;Min_cycle;Max_cycle;Signal;HPM_P1;HPM_P2
2022/10/12 00:02:25;;;;;;;21.50;8.38;;;9.70;99.90;;;;;;5022550;28;20243;-74
2022/10/12 00:04:52;;;;;;;16.58;6.88;;;9.70;99.90;;;;;;5014121;28;20287;-75
2022/10/12 00:07:19;;;;;;;16.50;7.57;;;9.60;99.90;;;;;;5001347;28;20236;-74
2022/10/12 00:09:46;;;;;;;8.82;6.30;;;9.60;99.90;;;;;;5012670;28;20216;-73
2022/10/12 00:12:13;;;;;;;23.65;7.78;;;9.50;99.90;;;;;;5010067;28;20309;-75
2022/10/12 00:14:40;;;;;;;13.23;7.03;;;9.60;99.90;;;;;;5007598;28;20291;-75
2022/10/12 00:17:07;;;;;;;13.48;6.80;;;9.60;99.90;;;;;;5013374;28;20291;-73
2022/10/12 00:19:35;;;;;;;15.43;7.35;;;9.50;99.90;;;;;;5006616;28;20288;-73
2022/10/12 00:22:02;;;;;;;13.95;7.18;;;9.50;99.90;;;;;;5020768;28;20301;-75
2022/10/12 00:24:29;;;;;;;18.90;7.82;;;9.60;99.90;;;;;;5014877;28;20237;-73
2022/10/12 00:26:55;;;;;;;13.48;8.00;;;9.50;99.90;;;;;;5010816;28;20288;-76
2022/10/12 00:29:22;;;;;;;16.10;7.15;;;9.50;99.90;;;;;;5010576;28;20235;-76
2022/10/12 00:31:49;;;;;;;16.10;7.03;;;9.50;99.90;;;;;;5015624;28;20275;-75
2022/10/12 00:34:16;;;;;;;15.23;6.95;;;9.30;99.90;;;;;;5021088;28;20676;-73
2022/10/12 00:36:44;;;;;;;15.45;7.32;;;9.30;99.90;;;;;;5030565;28;20290;-74
2022/10/12 00:39:11;;;;;;;11.27;6.70;;;9.20;99.90;;;;;;5024055;28;20256;-74
2022/10/12 00:41:41;;;;;;;9.85;6.40;;;9.30;99.90;;;;;;5023615;28;20212;-76
2022/10/12 00:44:34;;;;;;;14.40;7.53;;;9.20;99.90;;;;;;5025769;28;20296;-74
2022/10/12 00:47:05;;;;;;;15.85;6.40;;;9.20;99.90;;;;;;5018498;28;20207;-76
2022/10/12 00:49:32;;;;;;;14.93;6.97;;;9.20;99.90;;;;;;5025379;28;20252;-75
2022/10/12 00:52:05;;;;;;;22.83;7.28;;;9.20;99.90;;;;;;5022528;28;20283;-77
2022/10/12 00:54:36;;;;;;;17.05;8.15;;;9.20;99.90;;;;;;5002555;28;20243;-74
2022/10/12 00:57:06;;;;;;;13.18;7.55;;;9.00;99.90;;;;;;5011642;28;20204;-77
2022/10/12 00:59:39;;;;;;;12.00;6.43;;;8.90;99.90;;;;;;5014761;28;20198;-75
2022/10/12 01:02:06;;;;;;;18.48;8.18;;;9.00;99.90;;;;;;5015794;28;20287;-74
2022/10/12 01:04:33;;;;;;;12.15;7.30;;;8.90;99.90;;;;;;5023605;28;20200;-74
2022/10/12 01:07:01;;;;;;;11.30;5.78;;;8.80;99.90;;;;;;5011123;28;20213;-74
2022/10/12 01:09:29;;;;;;;15.23;7.70;;;8.80;99.90;;;;;;5021910;28;20255;-74
2022/10/12 01:11:57;;;;;;;12.73;7.45;;;8.80;99.90;;;;;;5001432;28;20215;-76
2022/10/12 01:14:25;;;;;;;16.02;7.45;;;8.70;99.90;;;;;;5009627;28;20212;-74
2022/10/12 01:16:56;;;;;;;19.58;6.93;;;8.60;99.90;;;;;;5026366;28;20292;-76
2022/10/12 01:19:48;;;;;;;19.98;7.40;;;8.60;99.90;;;;;;5011947;28;20245;-73
2022/10/12 01:22:19;;;;;;;24.15;8.50;;;8.60;99.90;;;;;;5015359;28;20215;-74
2022/10/12 01:24:51;;;;;;;12.40;7.75;;;8.50;99.90;;;;;;5021340;28;20210;-75
2022/10/12 01:27:45;;;;;;;17.15;7.40;;;8.50;99.90;;;;;;5014602;28;20271;-75
2022/10/12 01:30:16;;;;;;;15.80;7.28;;;8.50;99.90;;;;;;5011845;28;20687;-73
2022/10/12 01:33:09;;;;;;;14.02;7.80;;;8.50;99.90;;;;;;5013613;28;20677;-74
2022/10/12 01:35:42;;;;;;;17.27;6.88;;;8.50;99.90;;;;;;5025370;28;20217;-77
2022/10/12 01:38:21;;;;;;;18.00;6.50;;;8.50;99.90;;;;;;5028881;28;20592;-76
2022/10/12 01:40:55;;;;;;;16.95;7.00;;;8.50;99.90;;;;;;5016659;28;20213;-76
2022/10/12 01:43:22;;;;;;;14.85;7.47;;;8.40;99.90;;;;;;5028619;28;20693;-78
2022/10/12 01:45:51;;;;;;;15.95;6.95;;;8.50;99.90;;;;;;5026173;28;20215;-76
2022/10/12 01:48:18;;;;;;;13.25;7.90;;;8.40;99.90;;;;;;5016208;28;20235;-75
2022/10/12 01:50:49;;;;;;;12.13;7.43;;;8.40;99.90;;;;;;5017503;28;20713;-76
2022/10/12 01:53:27;;;;;;;13.40;6.18;;;8.50;99.90;;;;;;5018793;28;20247;-75
2022/10/12 01:56:01;;;;;;;10.88;7.10;;;8.50;99.90;;;;;;5021222;28;20196;-76
2022/10/12 01:58:40;;;;;;;16.77;6.82;;;8.50;99.90;;;;;;5022023;28;20309;-75
2022/10/12 02:01:19;;;;;;;16.40;7.00;;;8.50;99.90;;;;;;5025279;28;20199;-76
2022/10/12 02:03:51;;;;;;;16.65;7.25;;;8.50;99.90;;;;;;5029796;28;20259;-75
2022/10/12 02:06:19;;;;;;;12.43;5.85;;;8.60;99.90;;;;;;5026767;28;20301;-77
2022/10/12 02:08:54;;;;;;;19.38;6.63;;;8.60;99.90;;;;;;5031135;28;20308;-75
2022/10/12 02:11:22;;;;;;;16.58;7.30;;;8.60;99.90;;;;;;5022999;28;20211;-74
2022/10/12 02:13:54;;;;;;;14.13;6.72;;;8.60;99.90;;;;;;5015933;28;20200;-76
2022/10/12 02:16:29;;;;;;;10.63;6.28;;;8.60;99.90;;;;;;5024938;28;20226;-73
2022/10/12 02:18:57;;;;;;;14.85;6.70;;;8.50;99.90;;;;;;5019939;28;20316;-75
2022/10/12 02:21:29;;;;;;;13.40;7.88;;;8.50;99.90;;;;;;5024592;28;20204;-77
2022/10/12 02:23:59;;;;;;;18.00;6.97;;;8.60;99.90;;;;;;5012279;28;20236;-76
2022/10/12 02:26:27;;;;;;;12.60;5.95;;;8.50;99.90;;;;;;5029961;28;20260;-73
2022/10/12 02:28:57;;;;;;;11.25;6.43;;;8.50;99.90;;;;;;5027768;28;20580;-77
2022/10/12 02:31:31;;;;;;;16.60;7.18;;;8.50;99.90;;;;;;5012383;28;20304;-76
2022/10/12 02:34:04;;;;;;;18.75;9.02;;;8.50;99.90;;;;;;5026205;28;20317;-72
2022/10/12 02:36:36;;;;;;;14.05;7.63;;;8.50;99.90;;;;;;5021542;28;20231;-74
2022/10/12 02:39:08;;;;;;;17.50;7.28;;;8.50;99.90;;;;;;5024403;28;20233;-76
2022/10/12 02:41:40;;;;;;;14.93;7.35;;;8.50;99.90;;;;;;5022091;28;20280;-76
2022/10/12 02:44:11;;;;;;;9.85;7.25;;;8.40;99.90;;;;;;5017955;28;20292;-74
2022/10/12 02:46:41;;;;;;;17.77;7.80;;;8.50;99.90;;;;;;5015593;28;20283;-75
2022/10/12 02:49:08;;;;;;;15.52;7.68;;;8.50;99.90;;;;;;5020334;28;20231;-74
2022/10/12 02:51:37;;;;;;;21.98;7.57;;;8.30;99.90;;;;;;5015957;28;20696;-74
2022/10/12 02:54:04;;;;;;;13.38;7.45;;;8.30;99.90;;;;;;5025314;28;20328;-74
2022/10/12 02:56:31;;;;;;;21.70;9.13;;;8.20;99.90;;;;;;5017375;28;20215;-76
2022/10/12 02:58:58;;;;;;;16.85;7.45;;;8.10;99.90;;;;;;5024789;28;20420;-75
2022/10/12 03:01:25;;;;;;;17.63;9.73;;;8.10;99.90;;;;;;5019719;28;20200;-75
2022/10/12 03:03:53;;;;;;;17.52;7.97;;;8.10;99.90;;;;;;5024956;28;20290;-74
2022/10/12 03:06:20;;;;;;;22.45;8.70;;;8.00;99.90;;;;;;5024929;28;20311;-77
2022/10/12 03:08:47;;;;;;;15.70;9.80;;;8.00;99.90;;;;;;5029217;28;20591;-76
2022/10/12 03:11:14;;;;;;;11.98;9.60;;;8.00;99.90;;;;;;5026526;28;20236;-76
2022/10/12 03:13:41;;;;;;;16.33;9.40;;;8.00;99.90;;;;;;5017398;28;20775;-75
2022/10/12 03:16:10;;;;;;;14.85;9.25;;;8.00;99.90;;;;;;5022538;28;20204;-75
2022/10/12 03:18:38;;;;;;;15.70;10.40;;;8.00;99.90;;;;;;5023145;28;20266;-75
2022/10/12 03:21:06;;;;;;;17.63;10.85;;;8.00;99.90;;;;;;5028437;28;20245;-75
2022/10/12 03:23:33;;;;;;;19.50;10.15;;;8.00;99.90;;;;;;5020457;28;20291;-76
2022/10/12 03:26:00;;;;;;;14.52;10.45;;;8.00;99.90;;;;;;5011363;28;20237;-73
2022/10/12 03:28:27;;;;;;;19.95;10.55;;;8.00;99.90;;;;;;5020697;28;20238;-75
2022/10/12 03:30:54;;;;;;;22.92;11.60;;;7.90;99.90;;;;;;5021048;28;20211;-77
2022/10/12 03:33:21;;;;;;;18.10;11.68;;;7.90;99.90;;;;;;5028410;28;20211;-76
2022/10/12 03:35:48;;;;;;;20.02;10.65;;;7.90;99.90;;;;;;5021111;28;20219;-76
2022/10/12 03:38:17;;;;;;;20.77;10.40;;;7.80;99.90;;;;;;5024948;28;20231;-74
2022/10/12 03:40:44;;;;;;;19.42;12.20;;;7.80;99.90;;;;;;5020649;28;20295;-76
2022/10/12 03:43:12;;;;;;;17.95;11.23;;;7.80;99.90;;;;;;5007979;28;20302;-76
2022/10/12 03:45:39;;;;;;;19.48;10.73;;;7.80;99.90;;;;;;5026126;28;20213;-75
2022/10/12 03:48:08;;;;;;;26.90;11.20;;;7.80;99.90;;;;;;5019635;28;20315;-74
2022/10/12 03:50:35;;;;;;;17.27;11.40;;;7.80;99.90;;;;;;5026579;28;20230;-75
2022/10/12 03:53:03;;;;;;;15.38;10.40;;;7.90;99.90;;;;;;5020709;28;20209;-74
2022/10/12 03:55:32;;;;;;;16.58;9.90;;;7.90;99.90;;;;;;5019281;28;20255;-73
2022/10/12 03:57:59;;;;;;;16.15;10.80;;;8.00;99.90;;;;;;5022238;28;20318;-75
2022/10/12 04:00:26;;;;;;;10.95;9.65;;;7.90;99.90;;;;;;5020366;28;20646;-75
2022/10/12 04:02:54;;;;;;;12.55;8.85;;;7.90;99.90;;;;;;5025547;28;20212;-76
2022/10/12 04:05:21;;;;;;;18.05;11.13;;;8.00;99.90;;;;;;5020236;28;20262;-74
2022/10/12 04:07:48;;;;;;;19.02;8.73;;;8.00;99.90;;;;;;5017730;28;20586;-73
2022/10/12 04:10:15;;;;;;;19.75;9.32;;;8.00;99.90;;;;;;5021659;28;20215;-74
2022/10/12 04:12:43;;;;;;;21.00;9.95;;;7.90;99.90;;;;;;5042728;28;20654;-75
2022/10/12 04:15:10;;;;;;;14.63;11.02;;;7.90;99.90;;;;;;5022617;28;20228;-74
2022/10/12 04:17:38;;;;;;;14.15;9.55;;;7.90;99.90;;;;;;5029253;28;20310;-75
2022/10/12 04:20:06;;;;;;;22.40;12.40;;;7.90;99.90;;;;;;5011647;28;20214;-75
2022/10/12 04:22:33;;;;;;;17.75;10.93;;;7.80;99.90;;;;;;5022015;28;20207;-77
2022/10/12 04:25:00;;;;;;;24.30;11.55;;;7.70;99.90;;;;;;5024441;28;20290;-76
2022/10/12 04:27:27;;;;;;;14.82;11.02;;;7.60;99.90;;;;;;5020296;28;20236;-75
2022/10/12 04:29:55;;;;;;;17.23;10.85;;;7.60;99.90;;;;;;5015717;28;20234;-75
2022/10/12 04:32:22;;;;;;;26.88;12.07;;;7.50;99.90;;;;;;5014266;28;20553;-75
2022/10/12 04:34:49;;;;;;;18.65;10.88;;;7.50;99.90;;;;;;5023756;28;20302;-76
2022/10/12 04:37:16;;;;;;;17.50;11.52;;;7.50;99.90;;;;;;5025714;28;20315;-74
2022/10/12 04:39:43;;;;;;;19.13;10.85;;;7.50;99.90;;;;;;5018298;28;20243;-77
2022/10/12 04:42:10;;;;;;;18.83;12.55;;;7.40;99.90;;;;;;5022993;28;20538;-76
2022/10/12 04:44:37;;;;;;;21.63;13.00;;;7.40;99.90;;;;;;5020446;28;20314;-75
2022/10/12 04:47:06;;;;;;;20.00;12.93;;;7.40;99.90;;;;;;5026955;28;20286;-75
2022/10/12 04:49:33;;;;;;;20.70;12.70;;;7.40;99.90;;;;;;5027870;28;20339;-74
2022/10/12 04:51:59;;;;;;;16.23;9.95;;;7.50;99.90;;;;;;5022003;28;20596;-76
2022/10/12 04:54:26;;;;;;;18.55;10.63;;;7.60;99.90;;;;;;5020447;28;20653;-74
2022/10/12 04:56:53;;;;;;;15.95;10.27;;;7.60;99.90;;;;;;5025424;28;20699;-76
2022/10/12 04:59:20;;;;;;;18.58;11.95;;;7.60;99.90;;;;;;5015201;28;20291;-73
2022/10/12 05:01:47;;;;;;;11.10;8.80;;;7.60;99.90;;;;;;5030888;28;20213;-76
2022/10/12 05:04:15;;;;;;;16.27;11.57;;;7.70;99.90;;;;;;5022020;28;20211;-74
2022/10/12 05:06:44;;;;;;;18.35;11.35;;;7.60;99.90;;;;;;5023611;28;20304;-75
2022/10/12 05:09:11;;;;;;;17.15;11.68;;;7.60;99.90;;;;;;5027650;28;20235;-75
2022/10/12 05:11:39;;;;;;;16.23;11.68;;;7.60;99.90;;;;;;5024161;28;20211;-76
2022/10/12 05:14:06;;;;;;;17.83;10.48;;;7.40;99.90;;;;;;5030733;28;20643;-75
2022/10/12 05:16:33;;;;;;;23.08;11.15;;;7.50;99.90;;;;;;5020030;28;20279;-76
2022/10/12 05:19:00;;;;;;;15.30;10.60;;;7.60;99.90;;;;;;5031873;28;20647;-75
2022/10/12 05:21:30;;;;;;;23.85;11.57;;;7.50;99.90;;;;;;5027754;28;20207;-75
2022/10/12 05:23:57;;;;;;;14.23;10.75;;;7.50;99.90;;;;;;5010623;28;20637;-77
2022/10/12 05:26:24;;;;;;;13.15;9.60;;;7.50;99.90;;;;;;5016809;28;20623;-73
2022/10/12 05:28:51;;;;;;;12.07;8.32;;;7.50;99.90;;;;;;5025772;28;20232;-73
2022/10/12 05:31:18;;;;;;;16.20;9.60;;;7.60;99.90;;;;;;5027603;28;20230;-73
2022/10/12 05:33:45;;;;;;;25.05;10.18;;;7.60;99.90;;;;;;5025742;28;20658;-74
2022/10/12 05:36:12;;;;;;;16.17;10.38;;;7.50;99.90;;;;;;5015009;28;20257;-74
2022/10/12 05:38:40;;;;;;;17.58;12.10;;;7.40;99.90;;;;;;5029960;28;20329;-75
2022/10/12 05:41:07;;;;;;;20.20;10.38;;;7.30;99.90;;;;;;5023188;28;20287;-76
2022/10/12 05:43:34;;;;;;;17.15;11.90;;;7.30;99.90;;;;;;5031415;28;20204;-77
2022/10/12 05:46:00;;;;;;;24.38;12.20;;;7.30;99.90;;;;;;5027054;28;20210;-75
2022/10/12 05:48:28;;;;;;;15.48;12.00;;;7.20;99.90;;;;;;5022410;28;20234;-76
2022/10/12 05:50:55;;;;;;;17.73;12.73;;;7.20;99.90;;;;;;5020041;28;20234;-76
2022/10/12 05:53:22;;;;;;;15.88;11.10;;;7.10;99.90;;;;;;5016063;28;20246;-74
2022/10/12 05:55:55;;;;;;;14.30;12.05;;;7.10;99.90;;;;;;5031345;28;20269;-75
2022/10/12 05:58:22;;;;;;;17.55;11.00;;;6.90;99.90;;;;;;5038825;28;20224;-77
2022/10/12 06:00:49;;;;;;;22.45;9.63;;;7.20;99.90;;;;;;5027424;28;20203;-74
2022/10/12 06:03:16;;;;;;;16.88;12.20;;;7.30;99.90;;;;;;5014081;28;20228;-74
2022/10/12 06:05:43;;;;;;;21.70;11.48;;;7.30;99.90;;;;;;5023902;28;20242;-77
2022/10/12 06:08:10;;;;;;;20.42;11.75;;;7.40;99.90;;;;;;5028756;28;20252;-74
2022/10/12 06:10:37;;;;;;;20.45;11.25;;;7.40;99.90;;;;;;5017555;28;20242;-73
2022/10/12 06:13:06;;;;;;;19.77;10.82;;;7.40;99.90;;;;;;5024337;28;20256;-74
2022/10/12 06:15:35;;;;;;;13.63;10.15;;;7.50;99.90;;;;;;5024747;28;20307;-73
2022/10/12 06:18:02;;;;;;;26.65;10.93;;;7.50;99.90;;;;;;5020104;28;20230;-72
2022/10/12 06:20:30;;;;;;;17.30;10.10;;;7.60;99.90;;;;;;5022699;28;20211;-72
2022/10/12 06:22:57;;;;;;;14.60;9.10;;;7.70;99.90;;;;;;5022427;28;20269;-75
2022/10/12 06:25:24;;;;;;;14.48;9.82;;;7.70;99.90;;;;;;5015393;28;20292;-76
2022/10/12 06:27:51;;;;;;;13.30;9.82;;;7.80;99.90;;;;;;5018419;28;20257;-75
2022/10/12 06:30:20;;;;;;;18.92;10.55;;;7.80;99.90;;;;;;5017848;28;20196;-75
2022/10/12 06:32:46;;;;;;;14.25;10.63;;;8.00;99.90;;;;;;5014738;28;20777;-76
2022/10/12 06:35:14;;;;;;;14.90;10.40;;;8.00;99.90;;;;;;5010545;28;20600;-74
2022/10/12 06:37:40;;;;;;;20.70;9.50;;;8.10;99.90;;;;;;5021240;28;20312;-77
2022/10/12 06:40:08;;;;;;;16.70;9.68;;;8.20;99.90;;;;;;5027290;28;20208;-77
2022/10/12 06:42:35;;;;;;;15.73;8.65;;;8.40;99.90;;;;;;5021323;28;20644;-75
2022/10/12 06:45:04;;;;;;;15.23;8.55;;;8.80;99.90;;;;;;5012494;28;20255;-75
2022/10/12 06:47:32;;;;;;;13.50;6.43;;;9.20;99.90;;;;;;5012050;28;20225;-76
2022/10/12 06:49:59;;;;;;;9.82;6.13;;;9.90;99.90;;;;;;5014748;28;20665;-77
2022/10/12 06:52:26;;;;;;;12.20;6.03;;;10.80;99.90;;;;;;5010222;28;20683;-75
2022/10/12 06:54:55;;;;;;;12.77;6.82;;;11.70;99.90;;;;;;5021547;28;20252;-75
2022/10/12 06:57:21;;;;;;;9.82;5.25;;;12.40;99.90;;;;;;5013727;28;20289;-77
2022/10/12 06:59:51;;;;;;;7.80;5.13;;;13.40;99.90;;;;;;5020791;28;20683;-77
2022/10/12 07:02:18;;;;;;;9.02;5.93;;;14.40;99.90;;;;;;5028924;28;20198;-74
2022/10/12 07:04:49;;;;;;;10.50;6.05;;;15.10;99.90;;;;;;5021972;28;20270;-74
2022/10/12 07:07:16;;;;;;;10.13;6.40;;;15.70;99.90;;;;;;5020709;28;20362;-75
2022/10/12 07:09:43;;;;;;;13.20;7.50;;;16.10;99.90;;;;;;5024842;28;20451;-76
2022/10/12 07:12:10;;;;;;;8.77;5.47;;;16.40;99.90;;;;;;5017085;28;20472;-76
2022/10/12 07:14:37;;;;;;;14.43;6.20;;;17.50;99.90;;;;;;5016904;28;20454;-77
2022/10/12 07:17:04;;;;;;;9.83;5.37;;;18.20;96.70;;;;;;5016609;28;20461;-75
2022/10/12 07:19:31;;;;;;;7.73;5.43;;;18.60;95.00;;;;;;5010401;28;20508;-78
2022/10/12 07:22:00;;;;;;;10.40;5.97;;;19.10;93.40;;;;;;5004735;28;20470;-73
2022/10/12 07:24:34;;;;;;;9.30;5.80;;;19.00;92.90;;;;;;5012803;28;20527;-75
2022/10/12 07:27:01;;;;;;;10.47;6.03;;;19.10;92.60;;;;;;5026965;28;20549;-74
2022/10/12 07:29:30;;;;;;;14.70;6.67;;;19.20;92.30;;;;;;5017335;28;20464;-74
2022/10/12 07:31:57;;;;;;;16.27;6.30;;;19.20;92.30;;;;;;5003723;28;20484;-77
2022/10/12 07:34:25;;;;;;;7.80;4.73;;;19.50;92.10;;;;;;5003404;28;20869;-75
2022/10/12 07:36:52;;;;;;;10.20;4.83;;;19.50;91.80;;;;;;5010868;28;20883;-75
2022/10/12 07:39:21;;;;;;;9.20;5.00;;;20.10;91.30;;;;;;5020920;28;20519;-73
2022/10/12 07:41:48;;;;;;;9.60;5.67;;;20.40;90.60;;;;;;5017250;28;20450;-77
2022/10/12 07:44:15;;;;;;;14.77;5.60;;;20.40;89.80;;;;;;5037662;28;20596;-77
2022/10/12 07:46:42;;;;;;;13.37;6.10;;;20.60;89.50;;;;;;5026225;28;20535;-76
2022/10/12 07:49:12;;;;;;;12.00;5.80;;;20.90;88.60;;;;;;5006627;28;20971;-75
2022/10/12 07:51:39;;;;;;;9.67;5.90;;;21.00;89.10;;;;;;5003668;28;20479;-74
2022/10/12 07:54:06;;;;;;;11.30;6.17;;;21.30;87.80;;;;;;5015209;28;20474;-74
2022/10/12 07:56:34;;;;;;;16.23;6.53;;;21.30;86.70;;;;;;5004173;28;20517;-73
2022/10/12 07:59:01;;;;;;;10.33;5.60;;;21.40;87.00;;;;;;5000565;28;20563;-74
2022/10/12 08:01:31;;;;;;;8.50;4.63;;;21.40;85.80;;;;;;5024333;28;20439;-74
2022/10/12 08:03:59;;;;;;;15.97;6.70;;;21.90;86.20;;;;;;5018790;28;20447;-73
2022/10/12 08:06:28;;;;;;;11.20;5.60;;;22.30;84.00;;;;;;5026434;28;20484;-74
2022/10/12 08:08:55;;;;;;;15.10;5.43;;;22.40;84.00;;;;;;5024507;28;20499;-76
2022/10/12 08:11:22;;;;;;;8.47;5.17;;;22.10;82.80;;;;;;5016470;28;20559;-75
2022/10/12 08:13:50;;;;;;;8.23;4.87;;;22.30;83.30;;;;;;5013371;28;20950;-75
2022/10/12 08:16:20;;;;;;;13.00;4.60;;;22.60;82.60;;;;;;5022356;28;20534;-76
2022/10/12 08:18:47;;;;;;;14.13;6.30;;;22.70;82.20;;;;;;5017235;28;20489;-76
2022/10/12 08:21:15;;;;;;;8.47;4.53;;;22.80;81.50;;;;;;5022174;28;20482;-76
2022/10/12 08:23:43;;;;;;;12.93;5.77;;;22.70;80.20;;;;;;5018717;28;20447;-76
2022/10/12 08:26:10;;;;;;;12.20;5.47;;;23.00;80.40;;;;;;5013445;28;21009;-75
2022/10/12 08:28:37;;;;;;;9.13;5.40;;;23.50;80.00;;;;;;5021600;28;20903;-75
2022/10/12 08:31:12;;;;;;;18.23;5.27;;;23.30;79.50;;;;;;5020755;28;20953;-74
2022/10/12 08:33:39;;;;;;;14.30;5.40;;;23.50;79.40;;;;;;5021931;28;20483;-75
2022/10/12 08:36:12;;;;;;;11.63;5.60;;;23.40;78.80;;;;;;5015867;28;20483;-76
2022/10/12 08:38:42;;;;;;;9.20;5.90;;;23.50;79.20;;;;;;5006803;28;20565;-76
2022/10/12 08:41:33;;;;;;;12.37;4.87;;;23.40;79.70;;;;;;5007000;28;20452;-75
2022/10/12 08:44:23;;;;;;;8.60;4.63;;;23.90;78.20;;;;;;5014194;28;20447;-75
2022/10/12 08:46:57;;;;;;;9.77;4.70;;;24.50;76.50;;;;;;5005985;28;20447;-75
2022/10/12 08:49:27;;;;;;;11.23;3.67;;;24.60;74.80;;;;;;5019692;28;20442;-74
2022/10/12 08:51:56;;;;;;;8.90;4.13;;;24.60;74.10;;;;;;5027795;28;21060;-74
2022/10/12 08:54:28;;;;;;;8.90;3.37;;;24.90;73.50;;;;;;5025012;28;20451;-74
2022/10/12 08:56:56;;;;;;;11.83;4.63;;;25.40;71.50;;;;;;5015789;28;20450;-75
2022/10/12 08:59:25;;;;;;;11.60;4.57;;;24.90;72.30;;;;;;5024704;28;20468;-74
2022/10/12 09:02:20;;;;;;;12.67;4.13;;;24.70;73.30;;;;;;5036630;28;20466;-75
2022/10/12 09:04:56;;;;;;;8.53;3.87;;;24.70;73.10;;;;;;5030146;28;20461;-77
2022/10/12 09:07:29;;;;;;;7.17;3.27;;;24.80;71.30;;;;;;5029326;28;20474;-77
2022/10/12 09:10:05;;;;;;;10.20;4.30;;;25.30;71.30;;;;;;5013692;28;20455;-77
2022/10/12 09:12:44;;;;;;;9.73;4.73;;;25.20;70.10;;;;;;5021751;28;20512;-76
2022/10/12 09:15:15;;;;;;;12.23;4.30;;;24.90;70.90;;;;;;5015911;28;20456;-74
2022/10/12 09:17:48;;;;;;;11.47;3.83;;;25.20;70.20;;;;;;5019810;28;20459;-76
2022/10/12 09:20:19;;;;;;;8.00;3.40;;;24.90;69.60;;;;;;5016818;28;20507;-78
2022/10/12 09:22:49;;;;;;;7.83;3.20;;;24.70;69.20;;;;;;5011575;28;20475;-78
2022/10/12 09:25:18;;;;;;;7.93;3.23;;;25.10;70.20;;;;;;5015466;28;20509;-75
2022/10/12 09:27:46;;;;;;;6.87;3.87;;;25.40;69.80;;;;;;5027000;28;20530;-74
2022/10/12 09:30:14;;;;;;;6.27;2.83;;;25.30;70.40;;;;;;5028466;28;20459;-75
2022/10/12 09:33:09;;;;;;;6.70;2.83;;;25.80;69.00;;;;;;5025892;28;21074;-78
2022/10/12 09:35:37;;;;;;;7.67;3.43;;;25.60;68.90;;;;;;5020479;28;20436;-78
2022/10/12 09:38:04;;;;;;;6.20;2.77;;;24.70;68.80;;;;;;5024440;28;21044;-77
2022/10/12 09:40:32;;;;;;;9.30;4.03;;;24.80;69.50;;;;;;5015000;28;20785;-78
2022/10/12 09:43:01;;;;;;;11.53;4.10;;;24.00;70.10;;;;;;5019052;28;20778;-74
2022/10/12 09:45:31;;;;;;;9.10;4.10;;;24.00;71.80;;;;;;5011328;28;20451;-77
2022/10/12 09:48:15;;;;;;;9.70;3.63;;;23.60;72.70;;;;;;5024526;28;20832;-76
2022/10/12 09:50:46;;;;;;;6.73;3.10;;;23.20;73.20;;;;;;5016475;28;20781;-75
2022/10/12 09:53:20;;;;;;;9.23;3.37;;;22.70;74.10;;;;;;5018202;28;20579;-74
2022/10/12 09:55:54;;;;;;;7.50;3.80;;;22.20;75.10;;;;;;5026242;28;20497;-75
2022/10/12 09:58:22;;;;;;;9.43;4.13;;;21.90;76.40;;;;;;5007405;28;20539;-77
2022/10/12 10:01:21;;;;;;;10.60;3.53;;;21.60;77.10;;;;;;5022862;28;20486;-77
2022/10/12 10:04:07;;;;;;;11.27;3.83;;;21.40;78.00;;;;;;5027655;28;20525;-75
2022/10/12 10:06:35;;;;;;;7.60;3.33;;;21.10;78.90;;;;;;5028481;28;20458;-78
2022/10/12 10:09:02;;;;;;;10.40;4.13;;;20.60;79.60;;;;;;5028256;28;20478;-74
2022/10/12 10:11:30;;;;;;;18.80;3.23;;;20.30;81.00;;;;;;5020091;28;20982;-78
2022/10/12 10:13:59;;;;;;;7.73;3.10;;;20.40;80.50;;;;;;5017334;28;20540;-77
2022/10/12 10:16:28;;;;;;;11.10;3.97;;;20.50;81.20;;;;;;5029088;28;20465;-74
2022/10/12 10:18:59;;;;;;;7.83;3.10;;;20.60;80.20;;;;;;5017751;28;20462;-74
2022/10/12 10:21:31;;;;;;;13.57;3.83;;;20.30;80.00;;;;;;5026510;28;20548;-75
2022/10/12 10:24:00;;;;;;;11.70;3.80;;;20.60;80.80;;;;;;5013395;28;20499;-76
2022/10/12 10:26:30;;;;;;;7.17;3.07;;;20.20;80.30;;;;;;5029480;28;20498;-76
2022/10/12 10:29:15;;;;;;;8.03;3.57;;;19.80;81.40;;;;;;5029643;28;20464;-76
2022/10/12 10:31:44;;;;;;;10.80;4.33;;;19.30;82.80;;;;;;5037948;28;20450;-76
2022/10/12 10:34:23;;;;;;;12.57;4.40;;;18.90;84.10;;;;;;5021962;28;20469;-75
2022/10/12 10:36:52;;;;;;;8.40;4.70;;;18.90;85.40;;;;;;5014793;28;20446;-75
2022/10/12 10:39:26;;;;;;;7.77;3.73;;;18.40;86.40;;;;;;5017243;28;20468;-75
2022/10/12 10:41:54;;;;;;;10.23;4.00;;;18.20;87.10;;;;;;5000268;28;20528;-75
2022/10/12 10:44:28;;;;;;;11.40;3.60;;;17.90;88.10;;;;;;5022840;28;20456;-79
2022/10/12 10:46:58;;;;;;;6.30;3.70;;;18.00;88.80;;;;;;5008012;28;20886;-77
2022/10/12 10:49:39;;;;;;;11.27;3.43;;;17.80;90.00;;;;;;5012823;28;20440;-75
2022/10/12 10:52:08;;;;;;;10.43;3.40;;;17.60;90.40;;;;;;5022259;28;20814;-72
2022/10/12 10:54:37;;;;;;;10.70;3.40;;;17.60;91.00;;;;;;5003631;28;20519;-76
2022/10/12 10:57:10;;;;;;;9.00;3.20;;;17.60;90.60;;;;;;5016096;28;20442;-75
2022/10/12 10:59:45;;;;;;;7.00;2.73;;;17.70;90.80;;;;;;5006150;28;20428;-76
2022/10/12 11:02:23;;;;;;;8.70;3.40;;;17.70;90.00;;;;;;5019732;28;20529;-76
2022/10/12 11:04:58;;;;;;;16.37;3.57;;;17.30;90.40;;;;;;5019379;28;20532;-76
2022/10/12 11:07:31;;;;;;;9.03;3.00;;;17.40;91.00;;;;;;5027244;28;20517;-74
2022/10/12 11:10:02;;;;;;;10.83;3.07;;;17.20;91.20;;;;;;5024006;28;20448;-75
2022/10/12 11:12:34;;;;;;;10.63;4.27;;;17.20;91.10;;;;;;5013149;28;20437;-77
2022/10/12 11:15:07;;;;;;;8.70;3.83;;;17.00;91.30;;;;;;5023761;28;20466;-75
2022/10/12 11:17:38;;;;;;;9.63;3.13;;;17.10;91.10;;;;;;5029953;28;20470;-77
2022/10/12 11:20:32;;;;;;;4.77;3.53;;;17.20;91.20;;;;;;5001913;28;20483;-75
2022/10/12 11:23:03;;;;;;;10.67;4.33;;;17.20;91.70;;;;;;5013962;28;20504;-74
2022/10/12 11:25:37;;;;;;;6.70;3.30;;;17.10;91.50;;;;;;5009236;28;20451;-75
2022/10/12 11:28:07;;;;;;;8.53;4.90;;;17.00;92.00;;;;;;5019921;28;20556;-75
2022/10/12 11:30:39;;;;;;;10.63;3.87;;;17.00;92.20;;;;;;5011133;28;20796;-76
2022/10/12 11:33:11;;;;;;;11.40;3.67;;;17.00;92.00;;;;;;5015872;28;20500;-75
2022/10/12 11:35:43;;;;;;;11.97;3.40;;;16.90;92.40;;;;;;5022067;28;20444;-75
2022/10/12 11:38:16;;;;;;;11.20;3.03;;;16.90;92.60;;;;;;5024740;28;20891;-74
2022/10/12 11:40:48;;;;;;;16.73;5.40;;;16.90;93.00;;;;;;5018123;28;20444;-78
2022/10/12 11:43:21;;;;;;;10.17;4.40;;;17.10;92.90;;;;;;5023164;28;20853;-74
2022/10/12 11:45:52;;;;;;;36.60;5.83;;;17.00;92.20;;;;;;5025384;28;20755;-78
2022/10/12 11:48:25;;;;;;;6.68;2.60;;;16.70;92.40;;;;;;5016320;28;20869;-76
2022/10/12 11:50:56;;;;;;;17.30;5.80;;;16.70;92.60;;;;;;5018819;28;20240;-77
2022/10/12 11:53:31;;;;;;;8.77;3.03;;;16.60;92.80;;;;;;5012469;28;20471;-75
2022/10/12 11:56:07;;;;;;;9.17;2.60;;;16.70;93.30;;;;;;5025047;28;20559;-77
2022/10/12 11:58:39;;;;;;;9.63;3.63;;;16.90;93.00;;;;;;5012928;28;20471;-75
2022/10/12 12:01:23;;;;;;;11.80;3.03;;;16.80;93.20;;;;;;5028209;28;20483;-73
2022/10/12 12:04:23;;;;;;;5.43;2.30;;;16.90;92.90;;;;;;5018150;28;21016;-77
2022/10/12 12:06:57;;;;;;;11.93;3.57;;;16.90;93.30;;;;;;5002464;28;20867;-76
2022/10/12 12:09:37;;;;;;;13.10;4.07;;;16.90;93.50;;;;;;5015894;28;20553;-76
2022/10/12 12:12:22;;;;;;;11.90;3.30;;;16.90;93.40;;;;;;5001387;28;20451;-75
2022/10/12 12:15:28;;;;;;;6.87;2.67;;;16.70;93.10;;;;;;5013680;28;20471;-77
2022/10/12 12:18:10;;;;;;;9.23;3.17;;;16.80;93.50;;;;;;5011414;28;20473;-78
2022/10/12 12:21:00;;;;;;;6.33;2.20;;;16.80;93.50;;;;;;5005780;28;20999;-76
2022/10/12 12:23:32;;;;;;;7.03;2.80;;;16.70;93.50;;;;;;5017936;28;20458;-74
2022/10/12 12:26:06;;;;;;;10.43;3.23;;;16.80;93.70;;;;;;5016679;28;20527;-75
2022/10/12 12:28:34;;;;;;;12.87;3.60;;;16.70;93.30;;;;;;5012398;28;20470;-75
2022/10/12 12:31:12;;;;;;;9.17;3.30;;;16.70;93.60;;;;;;5021227;28;20474;-79
2022/10/12 12:33:41;;;;;;;4.93;2.83;;;16.70;93.90;;;;;;5020655;28;20581;-76
2022/10/12 12:36:10;;;;;;;12.73;3.10;;;16.80;93.90;;;;;;5012959;28;20982;-76
2022/10/12 12:38:40;;;;;;;8.97;3.20;;;16.70;93.30;;;;;;5013176;28;20556;-74
2022/10/12 12:41:11;;;;;;;9.73;4.23;;;16.80;93.40;;;;;;5019471;28;20448;-75
2022/10/12 12:43:53;;;;;;;12.07;3.40;;;16.80;93.60;;;;;;5016896;28;20444;-78
2022/10/12 12:46:21;;;;;;;8.03;2.63;;;16.80;93.20;;;;;;5010898;28;20448;-74
2022/10/12 12:49:03;;;;;;;7.00;3.33;;;16.90;92.70;;;;;;5010313;28;20491;-77
2022/10/12 12:51:37;;;;;;;6.73;3.33;;;17.00;92.90;;;;;;5023527;28;20720;-79
2022/10/12 12:54:15;;;;;;;11.27;3.03;;;16.80;92.60;;;;;;5026064;28;20495;-75
2022/10/12 12:57:14;;;;;;;7.67;3.30;;;16.70;92.40;;;;;;5014900;28;20543;-75
2022/10/12 13:00:05;;;;;;;4.43;2.43;;;16.60;92.70;;;;;;5008100;28;20448;-75
2022/10/12 13:03:06;;;;;;;5.70;2.67;;;16.60;92.90;;;;;;5029695;28;20880;-76